Terminal Aerodrome Forecast
Issued by NWS

Home | Current Version | Previous Version | Text Only | Print | Product List | Glossary On
Versions: 1 2 3 4 5 6 7 8 9 10 11 12 13 14 15 16
000
FTUS44 KCRP 190500
TAFLRD
TAF
KLRD 190533Z 1906/2006 13010KT P6SM SCT050
      TEMPO 1910/1914 BKN015
     FM191500 15012KT P6SM VCSH SCT040
     FM200000 13010KT P6SM BKN050=

USA.gov is the U.S. government's official web portal to all federal, state and local government web resources and services.